createdAt,value
2018-08-12T00:00:21.239Z,16.92
2018-08-12T00:01:01.634Z,16.87
2018-08-12T00:01:42.048Z,16.87
2018-08-12T00:02:22.445Z,16.85
2018-08-12T00:03:02.849Z,16.88
2018-08-12T00:03:43.287Z,16.85
2018-08-12T00:04:23.724Z,16.9
2018-08-12T00:05:04.130Z,16.92
2018-08-12T00:05:44.517Z,16.96
2018-08-12T00:06:25.009Z,16.88
2018-08-12T00:07:05.466Z,16.96
2018-08-12T00:07:45.816Z,16.92
2018-08-12T00:08:26.321Z,16.92
2018-08-12T00:09:06.792Z,16.99
2018-08-12T00:09:47.217Z,16.92
2018-08-12T00:10:27.576Z,16.99
2018-08-12T00:11:07.972Z,16.92
2018-08-12T00:11:48.367Z,16.87
2018-08-12T00:12:28.806Z,16.85
2018-08-12T00:13:09.165Z,16.8
2018-08-12T00:13:49.618Z,16.72
2018-08-12T00:14:30.030Z,16.69
2018-08-12T00:15:10.480Z,16.75
2018-08-12T00:15:50.840Z,16.62
2018-08-12T00:16:31.230Z,16.62
2018-08-12T00:17:11.681Z,16.5
2018-08-12T00:17:52.107Z,16.52
2018-08-12T00:18:32.478Z,16.55
2018-08-12T00:19:12.969Z,16.48
2018-08-12T00:19:53.327Z,16.45
2018-08-12T00:20:33.706Z,16.48
2018-08-12T00:21:14.088Z,16.4
2018-08-12T00:21:54.480Z,16.36
2018-08-12T00:22:34.905Z,16.3
2018-08-12T00:23:15.412Z,16.18
2018-08-12T00:23:55.775Z,16.22
2018-08-12T00:24:36.189Z,16.07
2018-08-12T00:25:16.603Z,16.14
2018-08-12T00:25:57.018Z,15.98
2018-08-12T00:26:37.453Z,16.04
2018-08-12T00:27:17.846Z,16.07
2018-08-12T00:27:58.279Z,16.01
2018-08-12T00:28:38.690Z,15.95
2018-08-12T00:30:34.328Z,15.85
2018-08-12T00:32:06.881Z,15.8
2018-08-12T00:32:47.370Z,15.84
2018-08-12T00:33:27.758Z,15.77
2018-08-12T00:34:08.082Z,15.78
2018-08-12T00:34:48.574Z,15.73
2018-08-12T00:35:28.895Z,15.71
2018-08-12T00:36:09.303Z,15.66
2018-08-12T00:36:49.805Z,15.68
2018-08-12T00:39:31.169Z,15.6
2018-08-12T00:40:11.874Z,15.64
2018-08-12T00:40:52.247Z,15.6
2018-08-12T00:41:32.636Z,15.56
2018-08-12T00:42:13.099Z,15.51
2018-08-12T00:42:53.511Z,15.53
2018-08-12T00:43:33.971Z,15.48
2018-08-12T00:44:14.460Z,15.43
2018-08-12T00:44:54.861Z,15.37
2018-08-12T00:45:35.240Z,15.38
2018-08-12T00:46:15.628Z,15.4
2018-08-12T00:46:56.033Z,15.37
2018-08-12T00:47:36.471Z,15.2
2018-08-12T00:48:16.912Z,15.16
2018-08-12T00:48:57.325Z,15.28
2018-08-12T00:49:37.747Z,15.28
2018-08-12T00:50:18.096Z,15.3
2018-08-12T00:50:58.509Z,15.33
2018-08-12T00:51:38.939Z,15.34
2018-08-12T00:52:19.368Z,15.41
2018-08-12T00:52:59.757Z,15.4
2018-08-12T00:53:40.205Z,15.35
2018-08-12T00:54:20.550Z,15.38
2018-08-12T00:55:00.929Z,15.34
2018-08-12T00:55:41.430Z,15.4
2018-08-12T00:56:21.861Z,15.3
2018-08-12T00:57:02.197Z,15.38
2018-08-12T00:57:42.662Z,15.34
2018-08-12T01:00:40.275Z,15.46
2018-08-12T01:01:20.636Z,15.44
2018-08-12T01:02:01.035Z,15.33
2018-08-12T01:02:41.488Z,15.4
2018-08-12T01:03:21.865Z,15.38
2018-08-12T01:05:13.000Z,15.4
2018-08-12T01:05:54.169Z,15.41
2018-08-12T01:06:34.611Z,15.43
2018-08-12T01:07:14.951Z,15.41
2018-08-12T01:07:55.340Z,15.38
2018-08-12T01:08:35.753Z,15.34
2018-08-12T01:09:16.222Z,15.33
2018-08-12T01:09:56.624Z,15.3
2018-08-12T01:10:37.088Z,15.23
2018-08-12T01:11:17.479Z,15.2
2018-08-12T01:11:57.843Z,15.2
2018-08-12T01:12:38.225Z,15.19
2018-08-12T01:13:18.619Z,15.19
2018-08-12T01:13:59.350Z,15.09
2018-08-12T01:14:39.520Z,15.18
2018-08-12T01:15:19.946Z,15.05
2018-08-12T01:16:02.359Z,15.05
2018-08-12T01:16:42.102Z,15.01
2018-08-12T01:17:22.519Z,15.01
2018-08-12T01:18:02.930Z,14.98
2018-08-12T01:18:43.353Z,14.79
2018-08-12T01:19:23.984Z,14.78
2018-08-12T01:20:04.338Z,14.79
2018-08-12T01:20:44.715Z,14.79
2018-08-12T01:21:25.151Z,14.8
2018-08-12T01:22:05.638Z,14.91
2018-08-12T01:22:46.014Z,14.97
2018-08-12T01:23:28.640Z,15.01
2018-08-12T01:24:09.034Z,15.11
2018-08-12T01:24:49.444Z,15.07
2018-08-12T01:25:29.861Z,15.07
2018-08-12T01:26:10.271Z,15.15
2018-08-12T01:26:50.782Z,15.2
2018-08-12T01:27:31.172Z,15.25
2018-08-12T01:28:11.603Z,15.28
2018-08-12T01:28:52.075Z,15.3
2018-08-12T01:29:32.493Z,15.35
2018-08-12T01:30:12.912Z,15.34
2018-08-12T01:30:53.283Z,15.41
2018-08-12T01:31:33.720Z,15.53
2018-08-12T01:32:14.158Z,15.48
2018-08-12T01:32:54.544Z,15.53
2018-08-12T01:33:34.975Z,15.55
2018-08-12T01:34:17.364Z,15.4
2018-08-12T01:34:57.720Z,15.53
2018-08-12T01:35:38.070Z,15.51
2018-08-12T01:36:18.520Z,15.44
2018-08-12T01:36:59.148Z,15.41
2018-08-12T01:37:39.318Z,15.37
2018-08-12T01:38:19.773Z,15.38
2018-08-12T01:39:00.158Z,15.3
2018-08-12T01:39:40.547Z,15.38
2018-08-12T01:40:20.951Z,15.31
2018-08-12T01:41:01.327Z,15.2
2018-08-12T01:41:41.762Z,15.22
2018-08-12T01:42:22.118Z,15.19
2018-08-12T01:43:02.536Z,15.19
2018-08-12T01:43:42.936Z,15.2
2018-08-12T01:44:23.357Z,15.12
2018-08-12T01:45:03.813Z,15.18
2018-08-12T01:45:44.273Z,15.15
2018-08-12T01:46:24.669Z,15.16
2018-08-12T01:47:05.050Z,15.07
2018-08-12T01:47:45.452Z,15.04
2018-08-12T01:48:25.872Z,15.03
2018-08-12T01:49:06.288Z,15.03
2018-08-12T01:49:46.777Z,15.05
2018-08-12T01:50:27.149Z,14.93
2018-08-12T01:51:07.549Z,15
2018-08-12T01:51:47.901Z,14.91
2018-08-12T01:52:28.315Z,14.82
2018-08-12T01:53:08.803Z,14.8
2018-08-12T01:53:49.214Z,14.93
2018-08-12T01:54:29.958Z,14.93
2018-08-12T01:55:10.213Z,14.93
2018-08-12T01:55:50.592Z,14.86
2018-08-12T01:56:31.012Z,14.82
2018-08-12T01:57:11.499Z,14.71
2018-08-12T01:57:51.894Z,14.83
2018-08-12T01:58:32.236Z,14.79
2018-08-12T01:59:12.686Z,14.86
2018-08-12T01:59:53.090Z,14.74
2018-08-12T02:00:33.697Z,14.82
2018-08-12T02:01:14.313Z,14.8
2018-08-12T02:01:55.346Z,14.8
2018-08-12T02:02:35.068Z,14.72
2018-08-12T02:03:15.409Z,14.67
2018-08-12T02:03:55.933Z,14.72
2018-08-12T02:04:36.264Z,14.71
2018-08-12T02:05:17.412Z,14.74
2018-08-12T02:05:57.829Z,14.71
2018-08-12T02:06:38.277Z,14.61
2018-08-12T02:07:18.698Z,14.63
2018-08-12T02:07:59.064Z,14.61
2018-08-12T02:08:39.518Z,14.66
2018-08-12T02:09:19.827Z,14.63
2018-08-12T02:10:00.306Z,14.78
2018-08-12T02:10:40.638Z,14.75
2018-08-12T02:11:21.317Z,14.72
2018-08-12T02:12:01.564Z,14.69
2018-08-12T02:12:41.966Z,14.63
2018-08-12T02:13:22.341Z,14.66
2018-08-12T02:14:02.756Z,14.59
2018-08-12T02:14:43.157Z,14.79
2018-08-12T02:15:23.505Z,14.82
2018-08-12T02:16:03.965Z,14.78
2018-08-12T02:16:44.375Z,14.8
2018-08-12T02:17:24.813Z,14.74
2018-08-12T02:18:06.045Z,14.78
2018-08-12T02:18:48.905Z,14.83
2018-08-12T02:19:29.355Z,14.78
2018-08-12T02:20:09.805Z,14.74
2018-08-12T02:20:50.251Z,14.71
2018-08-12T02:21:30.562Z,14.67
2018-08-12T02:22:10.965Z,14.67
2018-08-12T02:22:51.395Z,14.63
2018-08-12T02:23:31.761Z,14.75
2018-08-12T02:24:12.201Z,14.69
2018-08-12T02:24:52.699Z,14.71
2018-08-12T02:25:33.083Z,14.71
2018-08-12T02:26:13.443Z,14.75
2018-08-12T02:26:53.942Z,14.71
2018-08-12T02:27:34.343Z,14.82
2018-08-12T02:28:14.859Z,14.79
2018-08-12T02:28:55.360Z,14.85
2018-08-12T02:29:35.671Z,14.83
2018-08-12T02:30:16.099Z,14.8
2018-08-12T02:30:56.484Z,14.86
2018-08-12T02:31:37.062Z,14.69
2018-08-12T02:32:17.455Z,14.75
2018-08-12T02:32:57.890Z,14.93
2018-08-12T02:33:38.269Z,14.95
2018-08-12T02:34:18.708Z,14.93
2018-08-12T02:34:59.164Z,14.97
2018-08-12T02:35:39.614Z,15.12
2018-08-12T02:36:19.951Z,15.03
2018-08-12T02:37:00.459Z,15.07
2018-08-12T02:37:40.774Z,15.13
2018-08-12T02:38:21.239Z,15.15
2018-08-12T02:39:01.757Z,15.04
2018-08-12T02:39:41.999Z,15.01
2018-08-12T02:40:22.434Z,15.07
2018-08-12T02:41:02.787Z,15.05
2018-08-12T02:41:43.258Z,15.05
2018-08-12T02:42:23.574Z,15
2018-08-12T02:43:03.953Z,15
2018-08-12T02:43:44.406Z,14.95
2018-08-12T02:44:24.800Z,14.97
2018-08-12T02:45:05.210Z,15.09
2018-08-12T02:45:45.649Z,14.94
2018-08-12T02:46:26.119Z,14.98
2018-08-12T02:47:06.518Z,14.91
2018-08-12T02:47:47.488Z,14.97
2018-08-12T02:48:27.953Z,14.98
2018-08-12T02:49:10.506Z,14.95
2018-08-12T02:49:50.932Z,15.07
2018-08-12T02:50:31.650Z,15.03
2018-08-12T02:51:12.558Z,15.07
2018-08-12T02:51:53.001Z,15.07
2018-08-12T02:52:33.414Z,15.03
2018-08-12T02:53:13.831Z,15.01
2018-08-12T02:55:06.884Z,15.01
2018-08-12T02:55:52.011Z,14.86
2018-08-12T02:56:35.946Z,14.91
2018-08-12T02:57:16.492Z,14.74
2018-08-12T02:57:56.910Z,14.75
2018-08-12T02:58:37.500Z,14.63
2018-08-12T02:59:17.816Z,14.67
2018-08-12T02:59:58.278Z,14.66
2018-08-12T03:00:38.752Z,14.56
2018-08-12T03:01:19.105Z,14.49
2018-08-12T03:01:59.515Z,14.42
2018-08-12T03:02:39.909Z,14.36
2018-08-12T03:03:20.332Z,14.31
2018-08-12T03:04:00.768Z,14.27
2018-08-12T03:04:41.188Z,14.27
2018-08-12T03:05:21.638Z,14.23
2018-08-12T03:06:02.966Z,14.17
2018-08-12T03:06:43.197Z,14.09
2018-08-12T03:07:23.565Z,14.11
2018-08-12T03:08:04.238Z,14.16
2018-08-12T03:08:44.912Z,14.05
2018-08-12T03:09:25.369Z,14.01
2018-08-12T03:10:05.734Z,13.98
2018-08-12T03:10:46.442Z,13.96
2018-08-12T03:11:26.794Z,13.88
2018-08-12T03:12:07.254Z,13.83
2018-08-12T03:12:47.785Z,13.81
2018-08-12T03:13:28.185Z,13.86
2018-08-12T03:14:08.502Z,13.68
2018-08-12T03:14:49.265Z,13.72
2018-08-12T03:15:29.483Z,13.65
2018-08-12T03:16:09.996Z,13.73
2018-08-12T03:16:50.373Z,13.69
2018-08-12T03:17:30.732Z,13.73
2018-08-12T03:18:11.411Z,13.66
2018-08-12T03:20:10.634Z,13.72
2018-08-12T03:20:53.357Z,13.66
2018-08-12T03:21:33.722Z,13.69
2018-08-12T03:22:15.563Z,13.63
2018-08-12T03:22:55.834Z,13.62
2018-08-12T03:23:36.309Z,13.79
2018-08-12T03:24:16.881Z,13.81
2018-08-12T03:24:58.942Z,13.91
2018-08-12T03:25:41.082Z,13.96
2018-08-12T03:26:21.389Z,13.99
2018-08-12T03:27:03.560Z,13.98
2018-08-12T03:27:43.998Z,13.88
2018-08-12T03:28:24.711Z,13.83
2018-08-12T03:29:05.318Z,13.83
2018-08-12T03:29:45.756Z,13.76
2018-08-12T03:30:26.270Z,13.8
2018-08-12T03:31:06.615Z,13.79
2018-08-12T03:31:47.026Z,13.84
2018-08-12T03:32:27.393Z,13.83
2018-08-12T03:33:07.810Z,13.9
2018-08-12T03:33:48.347Z,13.9
2018-08-12T03:34:28.705Z,13.81
2018-08-12T03:35:09.058Z,13.98
2018-08-12T03:35:49.505Z,13.98
2018-08-12T03:36:29.847Z,13.96
2018-08-12T03:37:11.308Z,13.99
2018-08-12T03:37:51.718Z,14.13
2018-08-12T03:38:32.224Z,14.11
2018-08-12T03:39:12.811Z,14.11
2018-08-12T03:39:53.198Z,14.11
2018-08-12T03:40:34.570Z,14.16
2018-08-12T03:41:14.871Z,14.12
2018-08-12T03:41:55.303Z,14.16
2018-08-12T03:42:35.803Z,14.09
2018-08-12T03:43:16.216Z,14.12
2018-08-12T03:43:56.580Z,14.12
2018-08-12T03:44:36.959Z,14.19
2018-08-12T03:45:19.135Z,14.31
2018-08-12T03:45:59.650Z,14.24
2018-08-12T03:46:40.087Z,14.17
2018-08-12T03:47:22.678Z,14.34
2018-08-12T03:48:03.156Z,14.3
2018-08-12T03:48:43.515Z,14.31
2018-08-12T03:49:23.931Z,14.36
2018-08-12T03:50:04.338Z,14.27
2018-08-12T03:50:44.675Z,14.3
2018-08-12T03:51:25.133Z,14.38
2018-08-12T03:52:05.601Z,14.34
2018-08-12T03:52:45.993Z,14.29
2018-08-12T03:53:26.404Z,14.26
2018-08-12T03:54:06.778Z,14.27
2018-08-12T03:54:47.255Z,14.26
2018-08-12T03:55:27.681Z,14.23
2018-08-12T03:56:08.099Z,14.2
2018-08-12T03:56:49.123Z,14.3
2018-08-12T03:57:29.504Z,14.34
2018-08-12T03:58:10.050Z,14.42
2018-08-12T03:58:50.589Z,14.36
2018-08-12T03:59:30.958Z,14.48
2018-08-12T04:00:11.320Z,14.61
2018-08-12T04:00:51.737Z,14.56
2018-08-12T04:01:32.187Z,14.53
2018-08-12T04:02:12.640Z,14.49
2018-08-12T04:02:53.062Z,14.46
2018-08-12T04:03:34.014Z,14.44
2018-08-12T04:04:14.416Z,14.42
2018-08-12T04:04:54.849Z,14.42
2018-08-12T04:05:35.369Z,14.41
2018-08-12T04:06:15.748Z,14.46
2018-08-12T04:06:56.176Z,14.42
2018-08-12T04:07:36.536Z,14.46
2018-08-12T04:08:16.903Z,14.44
2018-08-12T04:09:00.276Z,14.38
2018-08-12T04:09:43.099Z,14.38
2018-08-12T04:10:23.501Z,14.38
2018-08-12T04:11:04.008Z,14.34
2018-08-12T04:11:44.377Z,14.24
2018-08-12T04:12:24.812Z,14.31
2018-08-12T04:13:05.248Z,14.42
2018-08-12T04:13:45.663Z,14.42
2018-08-12T04:14:26.012Z,14.39
2018-08-12T04:15:06.502Z,14.52
2018-08-12T04:15:47.039Z,14.53
2018-08-12T04:16:27.362Z,14.49
2018-08-12T04:17:07.751Z,14.67
2018-08-12T04:19:02.242Z,14.79
2018-08-12T04:21:27.731Z,14.86
2018-08-12T04:22:11.341Z,14.83
2018-08-12T04:22:51.721Z,15
2018-08-12T04:23:32.246Z,15
2018-08-12T04:24:12.596Z,15.01
2018-08-12T04:24:53.032Z,15.01
2018-08-12T04:25:33.410Z,15.04
2018-08-12T04:26:13.845Z,15.07
2018-08-12T04:26:54.253Z,15.04
2018-08-12T05:08:24.875Z,17.39
2018-08-12T05:09:59.908Z,17.45
2018-08-12T05:11:42.022Z,17.27
2018-08-12T05:13:44.841Z,17.3
2018-08-12T05:14:34.338Z,17.38
2018-08-12T05:15:13.194Z,17.53
2018-08-12T05:15:53.605Z,17.66
2018-08-12T05:16:33.994Z,17.71
2018-08-12T05:17:14.356Z,17.8
2018-08-12T05:17:54.822Z,17.96
2018-08-12T05:18:35.286Z,18.2
2018-08-12T05:19:15.626Z,18.49
2018-08-12T05:19:56.031Z,18.74
2018-08-12T05:20:36.369Z,18.93
2018-08-12T05:21:16.787Z,19.02
2018-08-12T05:21:59.335Z,19.23
2018-08-12T05:22:39.799Z,19.27
2018-08-12T05:23:20.206Z,19.07
2018-08-12T05:24:00.730Z,19.01
2018-08-12T05:24:41.149Z,18.84
2018-08-12T05:25:21.506Z,18.72
2018-08-12T05:26:02.005Z,18.64
2018-08-12T05:26:42.367Z,18.54
2018-08-12T05:27:22.872Z,18.46
2018-08-12T05:28:03.291Z,18.42
2018-08-12T05:28:43.768Z,18.29
2018-08-12T05:29:24.090Z,18.23
2018-08-12T05:30:04.528Z,18.31
2018-08-12T05:30:44.926Z,18.28
2018-08-12T05:31:25.610Z,18.31
2018-08-12T05:32:06.010Z,18.26
2018-08-12T05:32:46.426Z,18.31
2018-08-12T05:33:26.875Z,18.29
2018-08-12T05:34:07.332Z,18.41
2018-08-12T05:34:49.211Z,18.34
2018-08-12T05:35:29.192Z,18.34
2018-08-12T05:36:09.724Z,18.44
2018-08-12T05:36:50.116Z,18.35
2018-08-12T05:37:30.591Z,18.5
2018-08-12T05:38:11.012Z,18.47
2018-08-12T05:38:51.464Z,18.39
2018-08-12T05:39:31.890Z,18.41
2018-08-12T05:40:12.291Z,18.35
2018-08-12T05:40:52.623Z,18.49
2018-08-12T05:42:30.814Z,18.83
2018-08-12T05:43:21.605Z,18.79
2018-08-12T05:44:02.236Z,18.74
2018-08-12T05:44:42.840Z,18.87
2018-08-12T05:45:23.149Z,18.89
2018-08-12T05:46:03.553Z,18.94
2018-08-12T05:46:44.018Z,19.01
2018-08-12T05:47:24.400Z,19.09
2018-08-12T05:48:04.858Z,19.09
2018-08-12T05:48:45.287Z,19.25
2018-08-12T05:49:25.627Z,19.43
2018-08-12T05:50:06.034Z,19.7
2018-08-12T05:50:46.491Z,19.71
2018-08-12T05:51:27.054Z,19.86
2018-08-12T05:52:07.794Z,19.79
2018-08-12T05:54:20.607Z,20.13
2018-08-12T05:55:01.611Z,20.19
2018-08-12T05:55:41.952Z,20.12
2018-08-12T05:56:22.417Z,20.16
2018-08-12T05:58:15.728Z,20.31
2018-08-12T05:58:55.384Z,20.31
2018-08-12T05:59:35.769Z,20.33
2018-08-12T06:00:16.230Z,20.26
2018-08-12T06:00:56.601Z,20.27
2018-08-12T06:01:36.988Z,20.46
2018-08-12T06:02:17.439Z,20.57
2018-08-12T06:02:58.010Z,20.75
2018-08-12T06:03:38.428Z,21
2018-08-12T06:04:18.823Z,21.18
2018-08-12T06:04:59.267Z,21.26
2018-08-12T06:05:39.717Z,21.3
2018-08-12T06:06:20.145Z,21.34
2018-08-12T06:07:00.568Z,21.53
2018-08-12T06:07:41.008Z,21.74
2018-08-12T06:08:21.486Z,21.89
2018-08-12T06:09:01.845Z,21.98
2018-08-12T06:09:42.612Z,22.11
2018-08-12T06:10:23.027Z,22.17
2018-08-12T06:11:03.859Z,22.38
2018-08-12T06:11:44.021Z,22.46
2018-08-12T06:12:24.398Z,22.56
2018-08-12T06:13:05.052Z,22.64
2018-08-12T06:13:45.523Z,22.78
2018-08-12T06:14:25.898Z,23
2018-08-12T06:15:06.303Z,22.93
2018-08-12T06:15:46.759Z,23.04
2018-08-12T06:17:35.684Z,23.37
2018-08-12T06:18:16.075Z,23.39
2018-08-12T06:18:56.483Z,23.44
2018-08-12T06:19:36.900Z,23.56
2018-08-12T06:20:17.461Z,23.67
2018-08-12T06:20:57.916Z,23.78
2018-08-12T06:21:38.257Z,23.86
2018-08-12T06:22:18.621Z,24.12
2018-08-12T06:22:59.074Z,24.14
2018-08-12T06:23:39.450Z,24.41
2018-08-12T06:24:20.174Z,24.49
2018-08-12T06:25:00.332Z,24.52
2018-08-12T06:25:40.788Z,24.56
2018-08-12T06:26:21.255Z,24.61
2018-08-12T06:27:01.577Z,24.67
2018-08-12T06:27:42.039Z,24.59
2018-08-12T06:28:22.463Z,24.7
2018-08-12T06:29:02.819Z,24.34
2018-08-12T06:29:43.214Z,24.59
2018-08-12T06:30:23.656Z,24.44
2018-08-12T06:31:04.136Z,24.27
2018-08-12T06:31:44.594Z,24.33
2018-08-12T06:32:25.165Z,24.3
2018-08-12T06:33:05.565Z,24.3
2018-08-12T06:33:45.975Z,24.45
2018-08-12T06:34:26.426Z,24.48
2018-08-12T06:35:06.809Z,24.63
2018-08-12T06:35:47.275Z,24.79
2018-08-12T06:36:28.008Z,24.87
2018-08-12T06:37:08.471Z,24.79
2018-08-12T06:37:48.893Z,24.6
2018-08-12T06:38:29.378Z,24.53
2018-08-12T06:39:09.810Z,24.51
2018-08-12T06:39:50.246Z,24.59
2018-08-12T06:40:30.588Z,24.55
2018-08-12T06:41:11.001Z,24.7
2018-08-12T06:41:51.399Z,24.68
2018-08-12T06:42:33.085Z,24.68
2018-08-12T06:43:13.558Z,24.63
2018-08-12T06:43:53.991Z,24.45
2018-08-12T06:44:34.415Z,24.46
2018-08-12T06:45:14.912Z,24.48
2018-08-12T06:45:55.331Z,24.48
2018-08-12T06:46:35.737Z,24.48
2018-08-12T06:47:16.131Z,24.71
2018-08-12T06:47:56.592Z,24.77
2018-08-12T06:48:39.168Z,24.79
2018-08-12T06:49:19.547Z,24.61
2018-08-12T06:50:00.008Z,24.55
2018-08-12T06:50:40.470Z,24.59
2018-08-12T06:51:20.825Z,24.26
2018-08-12T06:52:01.366Z,24.24
2018-08-12T06:52:41.894Z,24.29
2018-08-12T06:53:22.236Z,24.16
2018-08-12T06:54:02.586Z,24.27
2018-08-12T06:54:43.230Z,24.26
2018-08-12T06:55:23.663Z,24.33
2018-08-12T06:56:04.110Z,24.31
2018-08-12T06:56:44.608Z,24.29
2018-08-12T06:57:24.969Z,24.3
2018-08-12T06:59:04.073Z,24.04
2018-08-12T06:59:45.276Z,24.12
2018-08-12T07:00:25.762Z,24.15
2018-08-12T07:01:06.110Z,24.23
2018-08-12T07:01:46.541Z,24.29
2018-08-12T07:02:26.890Z,24.16
2018-08-12T07:03:07.427Z,24.14
2018-08-12T07:03:47.825Z,24.16
2018-08-12T07:04:28.272Z,24.45
2018-08-12T07:05:08.793Z,24.56
2018-08-12T07:05:49.162Z,24.59
2018-08-12T07:06:29.606Z,24.68
2018-08-12T07:07:10.131Z,24.83
2018-08-12T07:07:50.571Z,24.87
2018-08-12T07:08:30.965Z,24.86
2018-08-12T07:09:11.365Z,25.09
2018-08-12T07:09:51.889Z,25.05
2018-08-12T07:10:32.288Z,24.92
2018-08-12T07:11:13.699Z,24.7
2018-08-12T07:11:54.201Z,24.64
2018-08-12T07:12:34.581Z,24.49
2018-08-12T07:13:15.002Z,24.46
2018-08-12T07:13:55.515Z,24.63
2018-08-12T07:14:35.924Z,24.68
2018-08-12T07:15:16.374Z,24.94
2018-08-12T07:15:56.869Z,24.92
2018-08-12T07:16:37.715Z,24.98
2018-08-12T07:17:18.122Z,24.94
2018-08-12T07:17:58.521Z,24.99
2018-08-12T07:18:38.973Z,24.84
2018-08-12T07:19:19.390Z,24.7
2018-08-12T07:19:59.745Z,24.7
2018-08-12T07:20:40.249Z,24.56
2018-08-12T07:21:20.622Z,24.59
2018-08-12T07:22:01.087Z,24.46
2018-08-12T07:22:41.776Z,24.42
2018-08-12T07:23:22.165Z,24.37
2018-08-12T07:24:02.677Z,24.41
2018-08-12T07:24:43.351Z,24.37
2018-08-12T07:25:23.710Z,24.49
2018-08-12T07:26:04.155Z,24.61
2018-08-12T07:26:44.727Z,24.49
2018-08-12T07:28:58.886Z,24.56
2018-08-12T07:29:40.885Z,24.63
2018-08-12T07:30:21.359Z,24.67
2018-08-12T07:31:01.712Z,24.6
2018-08-12T07:31:42.208Z,24.55
2018-08-12T07:32:22.535Z,24.51
2018-08-12T07:33:03.014Z,24.53
2018-08-12T07:33:43.710Z,24.46
2018-08-12T07:34:23.828Z,24.6
2018-08-12T07:35:04.290Z,24.49
2018-08-12T07:35:44.732Z,24.49
2018-08-12T07:36:25.275Z,24.59
2018-08-12T07:37:05.845Z,24.55
2018-08-12T07:37:46.218Z,24.74
2018-08-12T07:38:28.085Z,24.8
2018-08-12T07:39:08.555Z,24.82
2018-08-12T07:39:48.907Z,24.82
2018-08-12T07:40:30.594Z,24.94
2018-08-12T07:41:11.329Z,24.93
2018-08-12T07:41:51.707Z,25.05
2018-08-12T07:42:32.165Z,25.17
2018-08-12T07:43:12.636Z,25.31
2018-08-12T07:43:54.209Z,25.34
2018-08-12T07:44:34.958Z,25.39
2018-08-12T07:45:15.876Z,25.23
2018-08-12T07:45:57.754Z,25.27
2018-08-12T07:46:38.982Z,25.24
2018-08-12T07:47:19.273Z,25.38
2018-08-12T07:47:59.817Z,25.34
2018-08-12T07:48:41.025Z,25.35
2018-08-12T07:49:21.269Z,25.42
2018-08-12T07:50:02.495Z,25.48
2018-08-12T07:50:46.054Z,25.45
2018-08-12T07:51:26.708Z,25.44
2018-08-12T07:52:07.073Z,25.45
2018-08-12T07:54:05.647Z,25.44
2018-08-12T07:54:45.526Z,25.41
2018-08-12T07:55:25.898Z,25.48
2018-08-12T07:56:06.282Z,25.63
2018-08-12T07:56:46.909Z,25.71
2018-08-12T07:57:27.173Z,25.74
2018-08-12T07:58:07.626Z,25.89
2018-08-12T07:58:48.120Z,25.96
2018-08-12T07:59:29.240Z,26.23
2018-08-12T08:00:09.436Z,26.35
2018-08-12T08:00:49.855Z,26.44
2018-08-12T08:01:30.256Z,26.68
2018-08-12T08:02:10.901Z,26.71
2018-08-12T08:02:51.163Z,26.91
2018-08-12T08:03:31.628Z,27.09
2018-08-12T08:04:12.204Z,27.11
2018-08-12T08:04:52.578Z,27.23
2018-08-12T08:05:32.958Z,27.34
2018-08-12T08:06:14.232Z,27.52
2018-08-12T08:06:54.922Z,27.43
2018-08-12T08:07:35.587Z,27.4
2018-08-12T08:08:16.359Z,27.43
2018-08-12T08:08:57.073Z,27.53
2018-08-12T08:09:45.288Z,27.55
2018-08-12T08:10:28.183Z,27.71
2018-08-12T08:11:10.243Z,27.71
2018-08-12T08:11:51.194Z,27.74
2018-08-12T08:14:20.147Z,27.87
2018-08-12T08:19:49.209Z,28.17
2018-08-12T08:23:44.404Z,28.64
2018-08-12T08:24:30.024Z,28.67
2018-08-12T08:25:07.867Z,28.58
2018-08-12T08:25:48.554Z,28.51
2018-08-12T08:26:28.962Z,28.36
2018-08-12T08:27:09.464Z,28.35
2018-08-12T08:27:49.844Z,28.18
2018-08-12T08:28:30.227Z,28.3
2018-08-12T08:29:10.771Z,28.36
2018-08-12T08:29:54.987Z,28.62
2018-08-12T08:30:35.222Z,28.76
2018-08-12T08:31:17.539Z,28.97
2018-08-12T08:31:58.454Z,28.85
2018-08-12T08:32:44.523Z,28.88
2018-08-12T08:33:22.409Z,28.85
2018-08-12T08:34:02.835Z,28.89
2018-08-12T08:34:43.462Z,28.74
2018-08-12T08:36:24.871Z,28.64
2018-08-12T08:37:06.052Z,28.51
2018-08-12T08:37:51.466Z,28.5
2018-08-12T08:38:33.842Z,28.5
2018-08-12T08:39:25.982Z,28.62
2018-08-12T08:41:20.689Z,28.97
2018-08-12T08:42:01.080Z,29.12
2018-08-12T08:42:58.578Z,29.37
2018-08-12T08:43:38.984Z,29.62
2018-08-12T08:44:34.889Z,29.6
2018-08-12T08:45:19.064Z,29.89
2018-08-12T08:46:02.733Z,30.07
2018-08-12T08:46:41.309Z,30.19
2018-08-12T08:47:21.907Z,30.06
2018-08-12T08:48:02.328Z,29.91
2018-08-12T08:51:41.253Z,30.13
2018-08-12T08:52:22.715Z,30.1
2018-08-12T08:53:03.217Z,29.97
2018-08-12T08:53:44.346Z,29.97
2018-08-12T08:54:24.750Z,29.94
2018-08-12T08:55:06.666Z,29.94
2018-08-12T08:55:47.075Z,29.86
2018-08-12T08:56:28.309Z,29.89
2018-08-12T08:57:08.847Z,29.91
2018-08-12T08:57:51.599Z,29.95
2018-08-12T09:01:54.099Z,30.29
2018-08-12T09:02:33.340Z,30.18
2018-08-12T09:03:13.827Z,29.92
2018-08-12T09:03:54.278Z,29.94
2018-08-12T09:04:34.680Z,29.94
2018-08-12T09:06:30.339Z,29.82
2018-08-12T09:08:20.438Z,29.57
2018-08-12T09:09:01.391Z,29.55
2018-08-12T09:09:42.702Z,29.36
2018-08-12T09:10:24.737Z,29
2018-08-12T09:11:04.580Z,28.89
2018-08-12T09:11:45.213Z,28.97
2018-08-12T09:12:25.446Z,28.82
2018-08-12T09:13:05.886Z,28.89
2018-08-12T09:13:47.831Z,28.88
2018-08-12T09:14:28.209Z,28.95
2018-08-12T09:15:08.729Z,29.1
2018-08-12T09:15:50.694Z,29.12
2018-08-12T09:16:31.325Z,29.11
2018-08-12T09:17:12.097Z,29.17
2018-08-12T09:17:52.654Z,29.12
2018-08-12T09:18:33.326Z,29.12
2018-08-12T09:19:13.830Z,29.14
2018-08-12T09:19:54.264Z,29.11
2018-08-12T09:20:38.713Z,29.15
2018-08-12T09:22:34.188Z,29.33
2018-08-12T09:23:14.733Z,29.55
2018-08-12T09:23:55.503Z,29.52
2018-08-12T09:24:36.191Z,29.44
2018-08-12T09:25:16.733Z,29.39
2018-08-12T09:25:57.690Z,29.25
2018-08-12T09:26:38.047Z,29.26
2018-08-12T09:27:18.450Z,29.25
2018-08-12T09:27:58.951Z,29.21
2018-08-12T09:28:39.368Z,29.11
2018-08-12T09:29:20.119Z,28.92
2018-08-12T09:30:00.468Z,28.97
2018-08-12T09:30:41.528Z,28.87
2018-08-12T09:31:22.055Z,28.8
2018-08-12T09:32:02.502Z,28.97
2018-08-12T09:38:12.692Z,29.37
2018-08-12T09:40:15.141Z,29.44
2018-08-12T09:41:07.111Z,29.57
2018-08-12T09:41:59.178Z,29.64
2018-08-12T09:42:51.248Z,30.07
2018-08-12T09:43:43.218Z,30.28
2018-08-12T09:44:35.235Z,30.15
2018-08-12T09:45:18.759Z,30.21
2018-08-12T09:45:59.096Z,30.34
2018-08-12T09:46:39.457Z,30.25
2018-08-12T09:47:19.962Z,30.56
2018-08-12T09:48:00.251Z,30.7
2018-08-12T09:48:40.843Z,30.88
2018-08-12T09:49:21.304Z,30.94
2018-08-12T09:50:01.631Z,30.91
2018-08-12T09:50:42.014Z,31.03
2018-08-12T09:51:22.555Z,30.88
2018-08-12T09:52:02.869Z,30.68
2018-08-12T09:52:43.335Z,30.42
2018-08-12T09:53:23.786Z,30.46
2018-08-12T09:54:05.742Z,30.45
2018-08-12T09:54:46.545Z,30.53
2018-08-12T09:55:26.787Z,30.56
2018-08-12T09:56:07.791Z,30.63
2018-08-12T09:56:48.105Z,30.76
2018-08-12T09:57:28.833Z,30.78
2018-08-12T09:58:09.468Z,31.15
2018-08-12T09:58:50.366Z,31.49
2018-08-12T09:59:31.556Z,31.85
2018-08-12T10:00:12.061Z,32.21
2018-08-12T10:00:52.519Z,32.46
2018-08-12T10:01:32.840Z,32.73
2018-08-12T10:02:13.211Z,32.85
2018-08-12T10:02:53.685Z,32.91
2018-08-12T10:03:34.135Z,33.06
2018-08-12T10:04:15.245Z,33.12
2018-08-12T10:04:55.690Z,33.03
2018-08-12T10:05:36.068Z,32.99
2018-08-12T10:06:17.155Z,32.87
2018-08-12T10:06:57.580Z,32.9
2018-08-12T10:07:37.963Z,32.98
2018-08-12T10:08:18.736Z,33.06
2018-08-12T10:08:59.144Z,32.98
2018-08-12T10:09:40.055Z,32.71
2018-08-12T10:10:20.785Z,32.39
2018-08-12T10:11:01.301Z,32.31
2018-08-12T10:11:43.125Z,32.14
2018-08-12T10:12:23.725Z,32.19
2018-08-12T10:13:04.225Z,32.17
2018-08-12T10:13:45.006Z,32.14
2018-08-12T10:14:27.014Z,31.98
2018-08-12T10:15:07.706Z,31.95
2018-08-12T10:15:48.416Z,32.1
2018-08-12T10:16:28.495Z,32.12
2018-08-12T10:17:08.948Z,32.13
2018-08-12T10:17:49.848Z,32.09
2018-08-12T10:18:30.309Z,32.12
2018-08-12T10:19:10.831Z,31.95
2018-08-12T10:19:52.369Z,31.97
2018-08-12T10:20:32.798Z,31.92
2018-08-12T10:21:13.248Z,31.87
2018-08-12T10:21:54.445Z,31.74